Clearwater, Washington
Current Conditions -  °F | °C
As of 5:53 AM on Thursday 30 Oct 2014 (Local Time) from KUIL Reporting Station
Moderate Rain Moderate Rain  
Wind Chill: 50°   Ceiling: 3500
Heat Index: 50°   Visibility: 4mi
Dew Point: 49°   Wind: 8mph
Humidity: 96%   Direction: 90°E
Pressure: 29.82"   Gusts: NA
Location:  47.9519°N, 124.29°W
Report Text: KUIL 301253Z AUTO 09007KT 4SM RA BR BKN035 OVC049 10/09 A2982 RMK AO2 SLP096 P0007 T01000094
Loading
Personal Weather Stations






























Interactive Weather Map
Tropical Storm Tracking
New forecast layout! Learn more

10-Day Weather Forecast

Advertisements
Track Severe Weather on mobile